Time;durP1;ratioP1;P1;durP2;ratioP2;P2;SDS_P1;SDS_P2;PMS_P1;PMS_P2;Temp;Humidity;BMP_temperature;BMP_pressure;BME280_temperature;BME280_humidity;BME280_pressure;Samples;Min_cycle;Max_cycle;Signal;HPM_P1;HPM_P2
2022/05/12 00:01:28;;;;;;;20.72;11.20;;;;;;;9.89;79.60;94758.80;1681748;85;21509;-49
2022/05/12 00:03:55;;;;;;;19.10;12.68;;;;;;;9.88;79.31;94755.30;1681805;85;21077;-50
2022/05/12 00:06:23;;;;;;;19.85;11.57;;;;;;;9.80;79.43;94750.48;1681926;84;20986;-49
2022/05/12 00:08:51;;;;;;;16.00;10.80;;;;;;;9.74;79.58;94754.97;1681833;85;21113;-48
2022/05/12 00:11:18;;;;;;;23.42;11.80;;;;;;;9.65;79.63;94753.52;1685210;84;21092;-50
2022/05/12 00:13:46;;;;;;;31.95;14.73;;;;;;;9.58;79.74;94753.75;1687060;85;21053;-49
2022/05/12 00:16:12;;;;;;;20.62;12.82;;;;;;;9.48;79.83;94758.95;1687482;85;21037;-49
2022/05/12 00:18:39;;;;;;;24.47;12.65;;;;;;;9.41;80.21;94765.42;1687303;85;21037;-49
2022/05/12 00:21:05;;;;;;;22.50;13.25;;;;;;;9.38;80.35;94757.28;1665699;85;21161;-50
2022/05/12 00:23:32;;;;;;;23.35;12.53;;;;;;;9.36;80.46;94759.12;1687159;85;21447;-50
2022/05/12 00:25:59;;;;;;;25.55;12.47;;;;;;;9.34;80.74;94756.63;1687192;85;21013;-49
2022/05/12 00:28:26;;;;;;;26.68;13.08;;;;;;;9.34;80.68;94763.49;1687303;85;21068;-47
2022/05/12 00:30:55;;;;;;;20.85;11.33;;;;;;;9.30;80.72;94755.98;1688732;85;20994;-49
2022/05/12 00:33:25;;;;;;;16.73;10.98;;;;;;;9.23;81.04;94762.45;1664908;85;21196;-48
2022/05/12 00:35:51;;;;;;;17.62;12.30;;;;;;;9.19;81.43;94761.79;1687113;85;21018;-51
2022/05/12 00:38:18;;;;;;;27.42;13.48;;;;;;;9.21;81.71;94764.11;1687176;85;21120;-49
2022/05/12 00:40:46;;;;;;;19.62;11.63;;;;;;;9.23;81.76;94757.58;1687527;85;21490;-49
2022/05/12 00:43:39;;;;;;;22.60;10.53;;;;;;;9.23;81.61;94750.72;1687542;85;21057;-48
2022/05/12 00:46:16;;;;;;;22.15;12.10;;;;;;;9.22;81.50;94760.16;1687352;85;21235;-49
2022/05/12 00:48:45;;;;;;;24.12;12.78;;;;;;;9.18;81.49;94754.77;1687047;85;21053;-50
2022/05/12 00:51:16;;;;;;;24.00;12.68;;;;;;;9.21;81.74;94759.99;1687167;84;20990;-49
2022/05/12 00:53:43;;;;;;;20.60;12.28;;;;;;;9.20;81.61;94758.42;1687938;85;21010;-49
2022/05/12 00:56:12;;;;;;;21.80;12.10;;;;;;;9.17;81.63;94764.20;1687382;84;21036;-49
2022/05/12 00:58:40;;;;;;;23.10;11.78;;;;;;;9.15;81.68;94767.21;1687502;85;21215;-49
2022/05/12 01:01:09;;;;;;;17.87;11.15;;;;;;;9.11;81.66;94765.18;1687046;85;21046;-49
2022/05/12 01:03:38;;;;;;;19.30;11.45;;;;;;;9.06;81.90;94765.73;1687658;84;21072;-48
2022/05/12 01:06:04;;;;;;;14.45;9.85;;;;;;;9.04;81.92;94769.52;1688783;85;21001;-47
2022/05/12 01:08:31;;;;;;;15.18;10.88;;;;;;;9.02;82.03;94774.64;1687308;85;21038;-48
2022/05/12 01:11:07;;;;;;;16.10;10.82;;;;;;;9.02;81.79;94776.02;1685095;84;21123;-49
2022/05/12 01:13:34;;;;;;;23.05;10.82;;;;;;;8.95;81.75;94769.38;1681508;85;20982;-50
2022/05/12 01:16:02;;;;;;;17.27;10.85;;;;;;;8.90;81.84;94764.43;1681836;85;21026;-49
2022/05/12 01:18:31;;;;;;;19.67;11.33;;;;;;;8.84;81.91;94773.01;1681943;84;21042;-49
2022/05/12 01:21:00;;;;;;;16.87;10.75;;;;;;;8.78;82.13;94776.75;1681907;85;21094;-51
2022/05/12 01:23:32;;;;;;;17.42;11.95;;;;;;;8.72;82.37;94771.02;1655672;85;21264;-49
2022/05/12 01:26:05;;;;;;;;;;;;;;;8.68;82.55;94768.20;1684031;85;21144;-48
2022/05/12 01:28:32;;;;;;;15.90;11.07;;;;;;;8.64;82.69;94771.64;1681777;85;20178;-49
2022/05/12 01:30:59;;;;;;;21.00;10.98;;;;;;;8.64;82.69;94771.64;1681780;85;21553;-48
2022/05/12 01:33:26;;;;;;;20.72;12.18;;;;;;;8.64;82.85;94772.40;1681888;85;21085;-48
2022/05/12 01:35:53;;;;;;;19.85;12.05;;;;;;;8.65;82.96;94765.71;1681775;85;21247;-48
2022/05/12 01:38:19;;;;;;;21.48;12.18;;;;;;;8.66;82.92;94771.98;1681594;85;21030;-49
2022/05/12 01:40:46;;;;;;;17.25;11.15;;;;;;;8.62;82.97;94765.21;1681860;85;21084;-50
2022/05/12 01:43:14;;;;;;;21.35;11.60;;;;;;;8.59;83.01;94767.45;1679314;84;21007;-49
2022/05/12 01:45:41;;;;;;;20.20;12.65;;;;;;;8.56;83.00;94775.77;1682225;85;21026;-49
2022/05/12 01:48:09;;;;;;;26.77;12.82;;;;;;;8.53;83.11;94773.89;1682116;85;21099;-49
2022/05/12 01:50:38;;;;;;;24.23;12.82;;;;;;;8.52;83.26;94770.40;1681242;85;21081;-48
2022/05/12 01:53:09;;;;;;;16.87;11.55;;;;;;;8.51;83.31;94777.09;1681589;85;20982;-49
2022/05/12 01:55:34;;;;;;;17.17;12.07;;;;;;;8.50;83.31;94774.77;1681937;85;21006;-48
2022/05/12 01:58:01;;;;;;;14.28;10.10;;;;;;;8.48;83.30;94775.22;1681898;85;21102;-48
2022/05/12 02:00:29;;;;;;;22.22;10.65;;;;;;;8.50;83.28;94782.41;1681681;85;21189;-49
2022/05/12 02:03:00;;;;;;;18.35;11.50;;;;;;;8.44;83.21;94779.25;1681635;85;21561;-48
2022/05/12 02:05:25;;;;;;;22.60;11.22;;;;;;;8.35;83.38;94782.61;1681915;85;20981;-49
2022/05/12 02:07:52;;;;;;;21.70;12.75;;;;;;;8.30;83.51;94783.14;1681852;85;21049;-49
2022/05/12 02:10:24;;;;;;;21.48;11.22;;;;;;;8.27;83.57;94780.48;1681836;84;21021;-51
2022/05/12 02:12:51;;;;;;;16.23;10.73;;;;;;;8.24;83.65;94782.11;1682231;85;21101;-48
2022/05/12 02:15:18;;;;;;;17.82;10.95;;;;;;;8.26;83.93;94779.70;1681506;85;21038;-49
2022/05/12 02:17:45;;;;;;;23.30;12.10;;;;;;;8.29;84.05;94780.20;1681963;85;21473;-48
2022/05/12 02:20:13;;;;;;;18.62;10.95;;;;;;;8.27;83.98;94778.50;1681546;85;21029;-49
2022/05/12 02:22:40;;;;;;;22.65;11.45;;;;;;;8.27;84.15;94778.50;1682178;85;21025;-48
2022/05/12 02:25:08;;;;;;;36.45;11.43;;;;;;;8.25;84.04;94782.89;1681816;85;21225;-49
2022/05/12 02:27:35;;;;;;;16.50;10.00;;;;;;;8.21;83.85;94784.34;1681586;85;21491;-48
2022/05/12 02:30:03;;;;;;;19.80;10.20;;;;;;;8.17;83.80;94775.41;1681845;85;20997;-50
2022/05/12 02:32:30;;;;;;;23.35;11.20;;;;;;;8.13;83.88;94778.07;1682058;85;21033;-51
2022/05/12 02:34:56;;;;;;;41.02;12.53;;;;;;;8.07;84.00;94778.43;1655327;85;21158;-50
2022/05/12 02:37:24;;;;;;;34.03;10.85;;;;;;;8.01;84.28;94776.80;1682034;85;22072;-48
2022/05/12 02:39:51;;;;;;;17.80;11.12;;;;;;;7.99;84.65;94774.31;1656493;85;20977;-48
2022/05/12 02:42:17;;;;;;;25.10;11.20;;;;;;;7.98;84.66;94783.14;1681804;85;21058;-48
2022/05/12 02:44:44;;;;;;;15.93;10.05;;;;;;;8.00;84.86;94778.00;1681717;85;20989;-49
2022/05/12 02:47:11;;;;;;;16.67;10.15;;;;;;;8.06;84.87;94779.02;1681678;85;20978;-48
2022/05/12 02:49:37;;;;;;;22.50;10.68;;;;;;;8.10;84.91;94787.91;1655770;85;21086;-49
2022/05/12 02:52:07;;;;;;;23.80;10.93;;;;;;;8.07;84.68;94782.54;1681572;85;20970;-48
2022/05/12 02:54:34;;;;;;;28.55;11.60;;;;;;;8.00;84.63;94785.44;1682082;85;21488;-49
2022/05/12 02:57:01;;;;;;;38.35;11.60;;;;;;;7.92;84.59;94787.58;1679413;85;21034;-49
2022/05/12 02:59:28;;;;;;;55.80;12.15;;;;;;;7.89;84.77;94787.07;1681694;85;21050;-49
2022/05/12 03:01:54;;;;;;;35.10;11.50;;;;;;;7.90;84.76;94783.75;1679360;85;21267;-48
2022/05/12 03:04:21;;;;;;;48.50;13.38;;;;;;;7.91;84.77;94787.41;1681621;85;20982;-49
2022/05/12 03:06:47;;;;;;;40.00;13.03;;;;;;;7.92;85.04;94784.84;1681463;85;21026;-50
2022/05/12 03:09:14;;;;;;;41.35;11.93;;;;;;;7.96;85.03;94781.44;1681685;85;20982;-49
2022/05/12 03:11:40;;;;;;;33.42;11.03;;;;;;;8.02;84.85;94786.56;1684097;84;20994;-49
2022/05/12 03:14:07;;;;;;;61.08;13.50;;;;;;;8.08;84.70;94778.59;1687169;85;21741;-49
2022/05/12 03:16:34;;;;;;;38.90;13.62;;;;;;;8.10;84.41;94781.06;1686900;85;21035;-48
2022/05/12 03:19:01;;;;;;;37.38;12.25;;;;;;;8.07;84.29;94779.19;1687289;85;21510;-49
2022/05/12 03:21:28;;;;;;;43.80;12.90;;;;;;;8.03;84.35;94779.87;1687131;85;21017;-49
2022/05/12 03:23:54;;;;;;;30.30;12.23;;;;;;;8.00;84.26;94784.86;1687162;85;21084;-50
2022/05/12 03:26:21;;;;;;;49.23;13.38;;;;;;;8.00;84.20;94779.96;1688699;85;21668;-49
2022/05/12 03:28:47;;;;;;;71.00;13.68;;;;;;;8.03;84.39;94779.13;1664166;85;21017;-48
2022/05/12 03:31:14;;;;;;;55.43;14.18;;;;;;;8.07;84.15;94783.91;1687411;85;21592;-50
2022/05/12 03:33:41;;;;;;;38.60;13.20;;;;;;;8.08;84.17;94783.46;1687210;85;21005;-50
2022/05/12 03:36:08;;;;;;;39.25;12.03;;;;;;;8.16;84.21;94782.69;1687256;84;21088;-49
2022/05/12 03:38:35;;;;;;;31.20;11.90;;;;;;;8.52;84.52;94793.70;1687274;85;21251;-49
2022/05/12 03:41:01;;;;;;;27.15;12.30;;;;;;;8.83;83.46;94791.29;1687092;85;21407;-50
2022/05/12 03:46:13;;;;;;;45.33;12.58;;;;;;;8.99;82.14;94787.87;1687362;85;21009;-50
2022/05/12 03:48:40;;;;;;;35.70;11.63;;;;;;;9.07;82.14;94788.59;1687155;85;21097;-49
2022/05/12 03:51:07;;;;;;;46.58;12.53;;;;;;;9.15;81.60;94780.93;1688712;85;21168;-51
2022/05/12 03:53:35;;;;;;;33.45;12.07;;;;;;;9.19;81.14;94785.70;1687048;85;21022;-49
2022/05/12 03:56:02;;;;;;;44.90;14.00;;;;;;;9.37;81.26;94783.98;1687312;85;21043;-49
2022/05/12 03:58:28;;;;;;;48.75;12.53;;;;;;;9.67;80.61;94783.45;1687215;85;21017;-49
2022/05/12 04:00:55;;;;;;;62.83;13.45;;;;;;;9.84;79.59;94784.85;1687148;85;20978;-49
2022/05/12 04:03:22;;;;;;;37.85;12.70;;;;;;;9.88;79.00;94778.66;1687182;85;21262;-50
2022/05/12 04:05:49;;;;;;;36.15;12.73;;;;;;;9.86;78.60;94782.45;1687108;85;21024;-49
2022/05/12 04:08:15;;;;;;;35.13;10.93;;;;;;;9.82;78.48;94776.91;1687184;85;20974;-49
2022/05/12 04:10:42;;;;;;;27.22;11.50;;;;;;;9.78;78.64;94781.75;1687148;85;21034;-51
2022/05/12 04:13:09;;;;;;;22.13;12.35;;;;;;;9.78;78.75;94779.75;1687254;84;20997;-49
2022/05/12 04:15:35;;;;;;;40.73;11.05;;;;;;;9.79;78.76;94786.78;1687101;85;21527;-50
2022/05/12 04:18:05;;;;;;;43.95;12.30;;;;;;;9.84;78.92;94785.47;1687237;85;20986;-50
2022/05/12 04:20:36;;;;;;;21.40;12.03;;;;;;;9.90;79.09;94782.32;1687461;85;21025;-50
2022/05/12 04:23:04;;;;;;;25.48;10.65;;;;;;;9.95;79.01;94785.29;1687082;85;21024;-51
2022/05/12 04:25:30;;;;;;;25.90;11.50;;;;;;;10.00;78.95;94782.59;1687248;85;21089;-51
2022/05/12 04:27:58;;;;;;;19.52;10.40;;;;;;;10.07;78.93;94783.77;1687211;85;21561;-54
2022/05/12 04:30:26;;;;;;;28.47;12.30;;;;;;;10.20;79.12;94776.27;1687209;85;20967;-54
2022/05/12 04:32:54;;;;;;;19.05;11.80;;;;;;;10.39;78.88;94779.34;1665593;85;20989;-56
2022/05/12 04:35:23;;;;;;;30.88;11.55;;;;;;;10.56;78.41;94773.84;1687247;85;21035;-49
2022/05/12 04:37:53;;;;;;;24.23;10.30;;;;;;;10.71;78.00;94770.77;1687426;85;21096;-47
2022/05/12 04:40:27;;;;;;;19.05;10.80;;;;;;;10.81;77.59;94772.51;1686908;85;21115;-51
2022/05/12 04:42:56;;;;;;;18.92;11.15;;;;;;;10.92;77.23;94770.16;1687398;85;21053;-50
2022/05/12 04:45:25;;;;;;;16.32;9.58;;;;;;;11.03;76.79;94776.65;1687257;85;20993;-50
2022/05/12 04:47:52;;;;;;;25.52;10.78;;;;;;;11.13;76.69;94769.38;1687460;85;21017;-49
2022/05/12 04:50:26;;;;;;;35.50;9.25;;;;;;;11.30;76.57;94773.45;1687186;85;21026;-50
2022/05/12 04:52:52;;;;;;;25.75;8.78;;;;;;;11.54;76.06;94768.97;1687037;85;21173;-49
2022/05/12 04:55:21;;;;;;;14.47;8.68;;;;;;;11.74;75.48;94777.66;1687183;85;21517;-49
2022/05/12 04:57:49;;;;;;;11.93;7.62;;;;;;;11.88;74.86;94778.48;1687133;85;21045;-50
2022/05/12 05:00:23;;;;;;;12.78;7.80;;;;;;;12.03;74.23;94776.70;1687337;85;21072;-49
2022/05/12 05:02:50;;;;;;;12.73;7.17;;;;;;;12.13;73.44;94768.62;1651390;86;21066;-49
2022/05/12 05:05:18;;;;;;;14.40;7.58;;;;;;;12.25;72.82;94773.86;1625096;87;20973;-50
2022/05/12 05:07:46;;;;;;;13.68;7.55;;;;;;;12.39;72.32;94767.13;1652177;86;21094;-49
2022/05/12 05:10:12;;;;;;;20.85;8.83;;;;;;;12.49;71.91;94761.76;1626624;87;20998;-49
2022/05/12 05:12:42;;;;;;;13.88;7.62;;;;;;;12.62;71.43;94763.77;1641769;87;21049;-48
2022/05/12 05:15:10;;;;;;;17.17;7.37;;;;;;;12.77;71.01;94757.20;1632323;88;21026;-50
2022/05/12 05:17:38;;;;;;;12.20;7.03;;;;;;;12.92;70.59;94758.11;1632434;88;21154;-50
2022/05/12 05:20:06;;;;;;;16.65;7.33;;;;;;;13.12;70.08;94751.48;1632460;88;21133;-50
2022/05/12 05:22:34;;;;;;;9.30;6.40;;;;;;;13.28;69.43;94750.41;1632829;88;21030;-50
2022/05/12 05:25:01;;;;;;;28.87;7.72;;;;;;;13.40;68.91;94748.05;1608374;88;20987;-49
2022/05/12 05:27:29;;;;;;;13.68;7.55;;;;;;;13.53;68.58;94745.27;1634269;87;21077;-51
2022/05/12 05:29:56;;;;;;;16.42;8.30;;;;;;;13.71;68.21;94738.89;1624957;88;22213;-51
2022/05/12 05:32:23;;;;;;;13.10;8.00;;;;;;;13.84;67.69;94737.45;1681704;85;21001;-51
2022/05/12 05:34:49;;;;;;;22.85;8.15;;;;;;;14.00;67.37;94740.46;1681799;85;21018;-52
2022/05/12 05:37:17;;;;;;;16.02;8.30;;;;;;;14.17;66.87;94734.08;1682027;85;21612;-50
2022/05/12 05:39:44;;;;;;;15.98;7.17;;;;;;;14.37;66.42;94730.74;1681792;85;21046;-50
2022/05/12 05:42:13;;;;;;;14.45;7.40;;;;;;;14.55;65.80;94729.38;1679068;84;21278;-50
2022/05/12 05:44:40;;;;;;;13.60;7.78;;;;;;;14.69;65.40;94723.73;1654601;85;21081;-50
2022/05/12 05:47:08;;;;;;;16.67;6.70;;;;;;;14.80;64.75;94723.95;1655412;85;21081;-50
2022/05/12 05:49:36;;;;;;;33.42;9.40;;;;;;;14.90;64.26;94726.77;1681573;85;21470;-51
2022/05/12 05:54:49;;;;;;;18.82;7.00;;;;;;;15.04;63.85;94726.04;1680973;85;21248;-51
2022/05/12 05:57:26;;;;;;;20.05;6.83;;;;;;;15.14;63.70;94726.86;1678062;85;21041;-52
2022/05/12 05:59:55;;;;;;;33.25;7.95;;;;;;;15.27;63.47;94717.65;1676535;85;21467;-52
2022/05/12 06:02:22;;;;;;;26.50;8.43;;;;;;;15.40;63.10;94712.59;1678016;85;21053;-53
2022/05/12 06:04:48;;;;;;;47.98;9.75;;;;;;;15.54;62.71;94717.38;1674958;85;21550;-51
2022/05/12 06:07:16;;;;;;;15.53;6.25;;;;;;;15.71;62.08;94712.11;1650171;85;21180;-56
2022/05/12 06:09:43;;;;;;;53.60;11.45;;;;;;;15.88;61.51;94708.33;1676414;84;20991;-53
2022/05/12 06:12:10;;;;;;;34.08;9.05;;;;;;;16.03;61.29;94717.39;1669604;85;21531;-53
2022/05/12 06:14:38;;;;;;;17.95;7.37;;;;;;;16.18;60.89;94708.41;1650111;85;21069;-54
2022/05/12 06:17:07;;;;;;;29.27;7.72;;;;;;;16.35;60.63;94710.81;1651390;85;21076;-51
2022/05/12 06:19:33;;;;;;;12.63;6.08;;;;;;;16.51;60.07;94711.02;1678735;84;21115;-51
2022/05/12 06:22:04;;;;;;;19.50;6.85;;;;;;;16.64;59.10;94697.55;1679952;84;21006;-52
2022/05/12 06:24:34;;;;;;;29.02;8.58;;;;;;;16.74;58.84;94700.95;1674013;84;21564;-50
2022/05/12 06:27:01;;;;;;;15.58;6.55;;;;;;;16.85;58.49;94696.27;1674908;84;21053;-57
2022/05/12 06:29:28;;;;;;;11.28;5.75;;;;;;;16.95;58.23;94697.63;1676522;84;21072;-52
2022/05/12 06:31:55;;;;;;;34.00;6.78;;;;;;;17.07;57.65;94693.73;1676831;83;21330;-53
2022/05/12 06:34:24;;;;;;;12.07;7.17;;;;;;;17.20;57.43;94687.78;1676778;84;21525;-53
2022/05/12 06:36:54;;;;;;;18.35;7.47;;;;;;;17.34;57.13;94688.33;1657401;85;21568;-53
2022/05/12 06:39:20;;;;;;;12.50;6.45;;;;;;;17.51;56.75;94685.07;1647763;84;21197;-53
2022/05/12 06:41:47;;;;;;;14.47;6.35;;;;;;;17.67;56.48;94677.49;1674250;84;21085;-55
2022/05/12 06:44:14;;;;;;;15.65;6.92;;;;;;;17.83;55.92;94671.29;1671996;84;21213;-57
2022/05/12 06:46:42;;;;;;;14.83;7.12;;;;;;;17.95;55.18;94664.52;1676819;84;20977;-55
2022/05/12 06:49:12;;;;;;;11.05;5.47;;;;;;;18.11;55.12;94659.69;1674763;84;21082;-54
2022/05/12 06:51:39;;;;;;;12.68;5.83;;;;;;;18.29;54.45;94668.45;1681956;84;21087;-55
2022/05/12 06:54:06;;;;;;;16.07;6.22;;;;;;;18.42;54.06;94655.59;1685084;84;21117;-54
2022/05/12 06:56:35;;;;;;;18.92;6.08;;;;;;;18.54;54.11;94652.99;1652130;84;21183;-55
2022/05/12 06:59:02;;;;;;;13.72;6.40;;;;;;;18.73;53.96;94658.25;1674410;84;21046;-55
2022/05/12 07:01:29;;;;;;;13.65;5.53;;;;;;;18.92;53.96;94646.00;1612601;85;21049;-51
2022/05/12 07:03:58;;;;;;;21.70;9.13;;;;;;;19.10;53.83;94649.72;1619748;86;21086;-53
2022/05/12 07:06:25;;;;;;;28.07;8.20;;;;;;;19.28;53.98;94649.27;1624754;86;21377;-56
2022/05/12 07:08:52;;;;;;;26.90;7.80;;;;;;;19.49;54.16;94644.34;1599809;86;21178;-54
2022/05/12 07:11:20;;;;;;;20.75;6.42;;;;;;;19.75;53.34;94650.42;1596430;86;21081;-54
2022/05/12 07:13:47;;;;;;;13.75;7.47;;;;;;;20.00;51.20;94648.63;1624447;86;21098;-53
2022/05/12 07:16:14;;;;;;;18.80;5.83;;;;;;;20.26;49.55;94643.66;1625336;86;21061;-54
2022/05/12 07:18:41;;;;;;;26.55;6.45;;;;;;;20.56;47.61;94642.41;1626325;86;21009;-52
2022/05/12 07:26:42;;;;;;;20.90;5.00;;;;;;;21.35;42.73;94642.27;1675587;84;21144;-55
2022/05/12 07:29:14;;;;;;;20.85;5.08;;;;;;;21.52;42.11;94640.88;1684163;84;22074;-55
2022/05/12 07:31:41;;;;;;;11.45;4.50;;;;;;;21.69;42.15;94643.58;1680624;84;21128;-56
2022/05/12 07:34:09;;;;;;;14.85;4.87;;;;;;;21.84;41.61;94642.56;1674287;84;21334;-53
2022/05/12 07:36:39;;;;;;;25.90;4.92;;;;;;;22.00;41.17;94640.25;1678172;84;21930;-55
2022/05/12 07:39:05;;;;;;;11.90;4.15;;;;;;;22.12;41.18;94641.02;1678470;84;21053;-55
2022/05/12 07:41:33;;;;;;;21.05;4.42;;;;;;;22.22;40.54;94634.55;1675183;83;21470;-58
2022/05/12 07:44:01;;;;;;;10.93;4.47;;;;;;;22.31;40.63;94642.59;1647746;84;21103;-56
2022/05/12 07:46:30;;;;;;;22.77;5.47;;;;;;;22.41;40.14;94638.81;1674902;84;21668;-55
2022/05/12 07:48:57;;;;;;;13.35;5.60;;;;;;;22.51;41.04;94640.73;1670176;84;21570;-54
2022/05/12 07:51:24;;;;;;;8.15;4.42;;;;;;;22.65;40.28;94629.73;1675335;84;21041;-55
2022/05/12 07:53:52;;;;;;;24.40;4.75;;;;;;;22.76;39.56;94641.47;1677008;84;21018;-54
2022/05/12 07:56:26;;;;;;;14.78;4.50;;;;;;;22.81;38.38;94644.88;1688231;84;21241;-59
2022/05/12 07:58:54;;;;;;;14.93;4.58;;;;;;;22.83;38.93;94633.22;1639280;84;21128;-55
2022/05/12 08:01:21;;;;;;;22.58;5.30;;;;;;;22.87;39.38;94647.70;1648554;85;21295;-57
2022/05/12 08:03:48;;;;;;;12.43;5.03;;;;;;;22.91;38.63;94649.58;1672683;84;21059;-56
2022/05/12 08:06:16;;;;;;;14.53;5.12;;;;;;;22.95;37.70;94651.44;1677161;84;21104;-57
2022/05/12 08:08:44;;;;;;;29.95;5.95;;;;;;;22.95;38.11;94652.84;1672415;84;21079;-56
2022/05/12 08:11:11;;;;;;;45.65;7.62;;;;;;;22.93;37.59;94662.44;1677143;84;21834;-54
2022/05/12 08:13:39;;;;;;;27.62;4.80;;;;;;;22.94;37.98;94660.38;1674113;84;21102;-56
2022/05/12 08:16:07;;;;;;;25.80;4.62;;;;;;;22.95;38.13;94654.25;1674342;84;32521;-56
2022/05/12 08:18:35;;;;;;;25.20;4.70;;;;;;;22.99;38.06;94653.30;1665044;84;21116;-56
2022/05/12 08:21:02;;;;;;;7.97;4.08;;;;;;;23.00;37.87;94666.03;1673202;84;21185;-59
2022/05/12 08:23:29;;;;;;;8.90;3.90;;;;;;;23.00;37.39;94661.83;1678632;84;21266;-55
2022/05/12 08:25:56;;;;;;;14.55;4.65;;;;;;;23.00;37.89;94655.47;1674088;84;21059;-56
2022/05/12 08:28:24;;;;;;;9.25;4.00;;;;;;;23.06;37.81;94654.74;1674213;84;21103;-56
2022/05/12 08:30:51;;;;;;;22.75;5.35;;;;;;;23.11;37.98;94663.13;1672178;84;21194;-59
2022/05/12 08:33:18;;;;;;;10.93;4.67;;;;;;;23.18;37.95;94655.48;1654766;84;21885;-55
2022/05/12 08:35:45;;;;;;;21.35;5.83;;;;;;;23.23;37.89;94662.33;1677348;83;22007;-55
2022/05/12 08:38:16;;;;;;;17.90;4.20;;;;;;;23.23;37.25;94672.16;1678218;84;21031;-56
2022/05/12 08:41:13;;;;;;;16.45;5.25;;;;;;;23.21;37.08;94664.25;1652106;85;20998;-54
2022/05/12 08:43:58;;;;;;;33.83;5.08;;;;;;;23.23;36.78;94667.28;1668199;84;21149;-54
2022/05/12 08:46:49;;;;;;;13.95;4.17;;;;;;;23.24;37.44;94677.22;1686145;84;20980;-55
2022/05/12 08:49:38;;;;;;;16.62;3.85;;;;;;;23.27;37.97;94653.72;1680251;84;21112;-57
2022/05/12 08:52:15;;;;;;;15.65;4.17;;;;;;;23.33;37.43;94660.64;1677318;84;21073;-55
2022/05/12 08:55:09;;;;;;;16.52;3.90;;;;;;;23.36;37.56;94649.77;1673011;84;20998;-57
2022/05/12 08:57:42;;;;;;;10.28;4.47;;;;;;;23.38;38.04;94649.33;1678703;84;21699;-54
2022/05/12 09:00:12;;;;;;;11.38;4.70;;;;;;;23.47;37.70;94653.17;1675228;84;21109;-56
2022/05/12 09:03:24;;;;;;;13.13;4.50;;;;;;;23.52;37.46;94648.11;1687761;84;21209;-56
2022/05/12 09:06:06;;;;;;;13.53;5.78;;;;;;;23.56;36.26;94654.17;1674296;84;21041;-57
2022/05/12 09:08:55;;;;;;;19.40;4.80;;;;;;;23.64;37.20;94648.06;1667274;84;21092;-54
2022/05/12 09:11:42;;;;;;;13.53;4.90;;;;;;;23.74;37.02;94647.02;1674784;84;21053;-53
2022/05/12 09:14:14;;;;;;;29.40;4.83;;;;;;;23.86;36.87;94652.58;1679385;84;21080;-55
2022/05/12 09:16:41;;;;;;;15.20;4.12;;;;;;;23.90;36.84;94642.55;1643836;83;21309;-61
2022/05/12 09:19:07;;;;;;;9.15;4.08;;;;;;;23.98;36.03;94657.47;1660399;83;21142;-54
2022/05/12 09:21:36;;;;;;;15.38;5.70;;;;;;;24.01;35.60;94629.72;1682097;83;21026;-54
2022/05/12 09:24:04;;;;;;;18.23;4.80;;;;;;;24.03;36.26;94638.38;1683668;83;21064;-56
2022/05/12 09:26:49;;;;;;;11.45;4.67;;;;;;;24.08;36.45;94630.48;1683473;83;21449;-55
2022/05/12 09:29:27;;;;;;;7.33;3.55;;;;;;;24.15;36.21;94627.80;1678910;83;22078;-57
2022/05/12 09:31:57;;;;;;;6.60;3.72;;;;;;;24.21;35.80;94629.11;1695034;83;21113;-56
2022/05/12 09:34:35;;;;;;;10.38;5.17;;;;;;;24.27;34.95;94636.78;1680571;83;21520;-56
2022/05/12 09:37:26;;;;;;;23.75;5.85;;;;;;;24.27;35.27;94622.73;1681491;83;21111;-53
2022/05/12 09:39:55;;;;;;;11.75;5.12;;;;;;;24.28;35.16;94622.20;1686732;83;21001;-59
2022/05/12 09:42:36;;;;;;;16.95;4.45;;;;;;;24.31;34.82;94631.59;1685973;83;21355;-59
2022/05/12 09:45:08;;;;;;;5.67;3.65;;;;;;;24.33;35.07;94619.92;1681522;83;21061;-57
2022/05/12 09:47:35;;;;;;;12.30;5.15;;;;;;;24.40;34.60;94625.56;1661287;84;21060;-53
2022/05/12 09:50:19;;;;;;;34.43;7.95;;;;;;;24.52;35.11;94618.43;1663719;83;21504;-56
2022/05/12 09:52:57;;;;;;;15.20;9.38;;;;;;;24.60;34.73;94620.05;1685656;83;21092;-56
2022/05/12 09:55:38;;;;;;;13.30;7.90;;;;;;;24.68;33.97;94618.13;1669089;83;21226;-54
2022/05/12 09:58:17;;;;;;;11.83;6.47;;;;;;;24.73;34.39;94612.28;1679453;83;21093;-57
2022/05/12 10:01:05;;;;;;;18.73;9.18;;;;;;;24.81;34.28;94612.48;1680776;83;21658;-56
2022/05/12 10:09:26;;;;;;;31.87;6.62;;;;;;;24.88;33.86;94608.23;1669512;83;21317;-55
2022/05/12 10:12:19;;;;;;;15.48;9.23;;;;;;;24.93;33.46;94595.45;1695361;83;21585;-56
2022/05/12 10:14:57;;;;;;;28.40;13.88;;;;;;;25.06;33.21;94607.34;1695210;83;21464;-54
2022/05/12 10:17:46;;;;;;;17.95;5.33;;;;;;;25.24;33.00;94596.59;1672795;83;21123;-53
2022/05/12 10:20:18;;;;;;;28.15;7.60;;;;;;;25.42;33.65;94589.39;1686890;83;21093;-54
2022/05/12 10:23:03;;;;;;;12.53;3.77;;;;;;;25.60;32.73;94587.05;1691621;83;21125;-54
2022/05/12 10:25:59;;;;;;;12.95;4.17;;;;;;;25.75;32.50;94586.42;1682661;83;21532;-56
2022/05/12 10:29:02;;;;;;;28.23;4.20;;;;;;;25.87;31.84;94583.47;1676421;83;21526;-55
2022/05/12 10:31:46;;;;;;;14.78;4.30;;;;;;;26.04;32.06;94590.95;1630480;86;21099;-53
2022/05/12 10:34:43;;;;;;;9.70;3.52;;;;;;;26.25;31.91;94590.91;1628519;86;21451;-54
2022/05/12 10:37:28;;;;;;;11.30;3.70;;;;;;;26.34;31.19;94582.70;1631234;83;21239;-56
2022/05/12 10:40:27;;;;;;;9.30;4.60;;;;;;;26.43;32.11;94570.92;1682658;83;21100;-53
2022/05/12 10:43:03;;;;;;;22.27;4.15;;;;;;;26.67;31.54;94569.78;1683700;83;21146;-53
2022/05/12 10:45:56;;;;;;;16.42;4.60;;;;;;;26.96;30.36;94560.70;1683570;83;21049;-53
2022/05/12 10:48:49;;;;;;;22.40;4.25;;;;;;;27.06;30.63;94558.09;1659374;85;21131;-56
2022/05/12 10:51:43;;;;;;;20.75;4.53;;;;;;;27.17;30.66;94577.55;1673061;85;21162;-56
2022/05/12 10:54:34;;;;;;;24.20;3.62;;;;;;;27.12;29.98;94566.53;1687631;83;21083;-55
2022/05/12 10:57:15;;;;;;;20.68;3.80;;;;;;;27.15;30.03;94571.70;1694607;83;21677;-54
2022/05/12 11:00:03;;;;;;;16.70;3.57;;;;;;;27.19;29.73;94574.94;1685682;83;21095;-57
2022/05/12 11:02:54;;;;;;;18.50;3.50;;;;;;;27.31;30.41;94563.38;1683365;83;21112;-54
2022/05/12 11:05:44;;;;;;;13.03;3.70;;;;;;;27.57;29.84;94569.47;1681789;83;21266;-56
2022/05/12 11:08:36;;;;;;;18.23;3.87;;;;;;;27.86;29.59;94570.88;1682864;83;21065;-55
2022/05/12 11:11:35;;;;;;;9.93;3.85;;;;;;;28.11;29.52;94566.92;1661212;83;21061;-55
2022/05/12 11:14:20;;;;;;;14.35;4.25;;;;;;;28.37;29.15;94575.03;1662291;83;21037;-55
2022/05/12 11:17:27;;;;;;;15.20;4.47;;;;;;;28.69;28.75;94565.91;1683772;83;21512;-57
2022/05/12 11:20:05;;;;;;;10.53;3.33;;;;;;;28.97;28.93;94575.59;1680057;83;21858;-54
2022/05/12 11:22:50;;;;;;;18.50;3.70;;;;;;;29.19;28.32;94573.34;1679892;83;22261;-54
2022/05/12 11:25:34;;;;;;;38.98;5.28;;;;;;;29.41;28.42;94584.58;1680615;83;21054;-57
2022/05/12 11:31:09;;;;;;;16.45;4.25;;;;;;;29.75;27.25;94591.13;1703818;83;21100;-56
2022/05/12 11:33:39;;;;;;;6.45;3.15;;;;;;;29.73;27.49;94578.95;1686707;83;21310;-55
2022/05/12 11:36:08;;;;;;;17.57;3.72;;;;;;;29.89;27.26;94574.01;1685585;83;21036;-57
2022/05/12 11:38:44;;;;;;;7.78;3.10;;;;;;;30.16;26.90;94582.05;1662367;85;21065;-57
2022/05/12 11:41:35;;;;;;;9.25;2.90;;;;;;;30.17;26.72;94571.45;1680188;83;21072;-57
2022/05/12 11:44:29;;;;;;;8.35;3.12;;;;;;;30.19;26.40;94570.98;1683099;83;21045;-56
2022/05/12 11:47:44;;;;;;;6.78;3.27;;;;;;;30.33;26.53;94563.64;1688561;83;21955;-56
2022/05/12 11:50:39;;;;;;;13.83;2.80;;;;;;;30.50;25.91;94562.94;1681276;83;21104;-57
2022/05/12 11:53:27;;;;;;;8.95;3.33;;;;;;;30.73;26.45;94562.83;1682602;83;21093;-57
2022/05/12 11:56:04;;;;;;;13.68;3.30;;;;;;;31.08;25.71;94558.63;1682860;83;21034;-56
2022/05/12 11:58:40;;;;;;;11.25;3.27;;;;;;;31.37;25.54;94559.63;1681657;83;21107;-58
2022/05/12 12:01:11;;;;;;;6.40;3.20;;;;;;;31.54;25.61;94553.91;1680562;83;21304;-56
2022/05/12 12:04:02;;;;;;;9.58;2.62;;;;;;;31.81;25.44;94550.40;1677742;83;21213;-60
2022/05/12 12:06:51;;;;;;;9.05;3.52;;;;;;;32.11;24.62;94552.80;1679723;83;21121;-60
2022/05/12 12:09:32;;;;;;;12.20;3.25;;;;;;;32.31;24.74;94548.03;1681408;83;20952;-60